Velkommen til

Stord Flyklubb

Om oss

Historien til Stord Flyklubb

Klubbens aner strekker seg tilbake til 1969 med sjøfly. Siden har vi sett vanlige motorfly og glidefly, men det er sportsfly som er hovedfokuset i dag

En kilometer vei vil ta deg en kilometer

En kilometer rullebane vil ta deg hvor enn du vil

Bli pilot

Alle kan lære å fly!

Ta en prøvetur hos oss og se hvor moro det er! Prøveturen gir deg en mulighet til å se om dette er noe du har lyst til å gå videre med.

Teorien tas av de fleste som hjemmeundervisning. Nytt læremateriell gjør opplæringen både enklere og mer strømlinjeformet.

Praksis kan påbegynnes mens man tar teorien, men teorien må være bestått før man kan fly solo. 

METAR Haugesund
ENHD 210720Z 29011KT 9999 FEW038 BKN064 13/10 Q1021 ENHD 210650Z 29014KT 9999 FEW018 SCT028 BKN043 13/10 Q1020 ENHD 210620Z 31016KT 9999 FEW023 BKN063 13/09 Q1020 ENHD 210550Z 29015KT 9999 FEW022 SCT036 BKN059 13/09 Q1020 ENHD 210520Z 28019KT 9999 FEW020 SCT032 BKN047 14/10 Q1020 ENHD 210450Z 29015KT 9999 FEW022 BKN064 14/09 Q1020 TAF ENHD 210500Z 2106/2115 30015KT 9999 -SHRA FEW015TCU BKN030
METAR Flesland
ENBR 210720Z 27006KT 230V320 9999 FEW020 SCT031 BKN053 13/09 Q1019 NOSIG RMK WIND 1200FT 28015KT ENBR 210650Z 26007KT 9999 VCSH FEW020 SCT037 BKN060 12/08 Q1019 NOSIG RMK WIND 1200FT 28015KT ENBR 210620Z 26009KT 220V310 9999 SCT030 BKN040 12/08 Q1019 NOSIG RMK WIND 1200FT 28017KT ENBR 210550Z 15004KT 120V180 8000 -RA SCT018 BKN044 OVC064 10/09 Q1019 NOSIG RMK WIND 1200FT 27015KT ENBR 210520Z VRB03KT 9999 FEW024 BKN058 BKN180 10/09 Q1019 NOSIG RMK WIND 1200FT 26012KT ENBR 210450Z 20004KT 170V230 9999 FEW007 SCT030 BKN040 11/08 Q1019 NOSIG RMK WIND 1200FT 26010KT TAF ENBR 2106/2206 24008KT 9999 -SHRA FEW012TCU BKN030 BECMG 2115/2117 17010KT BECMG 2118/2120 16020KT TEMPO 2118/2202 BKN012 TEMPO 2202/2206 4000 DZ BR BKN008